Time;durP1;ratioP1;P1;durP2;ratioP2;P2;SDS_P1;SDS_P2;PMS_P1;PMS_P2;Temp;Humidity;BMP_temperature;BMP_pressure;BME280_temperature;BME280_humidity;BME280_pressure;Samples;Min_cycle;Max_cycle;Signal;HPM_P1;HPM_P2
2021/03/01 00:00:32;;;;;;;57.42;27.50;;;;;;;;;;4974816;28;20515;-72
2021/03/01 00:02:58;;;;;;;55.33;27.52;;;;;;;;;;4987462;28;20380;-71
2021/03/01 00:05:24;;;;;;;55.67;27.83;;;;;;;;;;4986336;28;20422;-73
2021/03/01 00:07:50;;;;;;;55.45;27.15;;;;;;;;;;4987343;28;20045;-71
2021/03/01 00:10:17;;;;;;;63.38;28.17;;;;;;;;;;4976292;28;20411;-71
2021/03/01 00:12:43;;;;;;;55.75;27.17;;;;;;;;;;4986789;28;20117;-74
2021/03/01 00:15:10;;;;;;;58.45;28.75;;;;;;;;;;4986649;28;20036;-71
2021/03/01 00:17:36;;;;;;;55.80;28.10;;;;;;;;;;4986942;28;20026;-71
2021/03/01 00:20:03;;;;;;;54.92;28.15;;;;;;;;;;4985764;28;20097;-71
2021/03/01 00:22:29;;;;;;;67.65;29.35;;;;;;;;;;4990222;28;20042;-71
2021/03/01 00:24:55;;;;;;;63.65;28.42;;;;;;;;;;4990568;28;20034;-72
2021/03/01 00:27:21;;;;;;;69.03;28.02;;;;;;;;;;4990379;28;20032;-71
2021/03/01 00:29:47;;;;;;;61.10;29.25;;;;;;;;;;4990186;28;20031;-73
2021/03/01 00:32:13;;;;;;;73.07;30.35;;;;;;;;;;4973530;28;20481;-71
2021/03/01 00:34:39;;;;;;;67.90;28.02;;;;;;;;;;4990564;28;20097;-73
2021/03/01 00:37:05;;;;;;;85.35;30.67;;;;;;;;;;4989898;28;20455;-71
2021/03/01 00:39:31;;;;;;;77.55;31.90;;;;;;;;;;4989803;28;20431;-71
2021/03/01 00:41:57;;;;;;;114.40;32.40;;;;;;;;;;4990327;28;20081;-71
2021/03/01 00:44:23;;;;;;;74.82;28.10;;;;;;;;;;4989805;28;20104;-71
2021/03/01 00:46:49;;;;;;;82.53;27.48;;;;;;;;;;4989754;28;20022;-71
2021/03/01 00:49:14;;;;;;;90.60;27.00;;;;;;;;;;4990044;28;20030;-71
2021/03/01 00:51:40;;;;;;;72.72;27.88;;;;;;;;;;4989991;28;20029;-74
2021/03/01 00:54:06;;;;;;;87.10;28.17;;;;;;;;;;4990738;28;20022;-71
2021/03/01 00:56:32;;;;;;;109.82;29.60;;;;;;;;;;4988554;28;20121;-71
2021/03/01 00:58:58;;;;;;;51.70;24.98;;;;;;;;;;4990362;28;20105;-71
2021/03/01 01:01:24;;;;;;;65.63;25.17;;;;;;;;;;4989799;28;20030;-71
2021/03/01 01:03:50;;;;;;;62.05;25.60;;;;;;;;;;4989806;28;20034;-71
2021/03/01 01:06:16;;;;;;;57.92;23.98;;;;;;;;;;4988619;28;20031;-73
2021/03/01 01:08:42;;;;;;;59.10;23.52;;;;;;;;;;4988298;28;20073;-71
2021/03/01 01:11:08;;;;;;;79.35;23.73;;;;;;;;;;4990042;28;20145;-71
2021/03/01 01:13:34;;;;;;;69.90;26.05;;;;;;;;;;4977674;28;20053;-71
2021/03/01 01:16:00;;;;;;;63.65;22.98;;;;;;;;;;4989685;28;20029;-71
2021/03/01 01:18:26;;;;;;;51.13;22.73;;;;;;;;;;4989718;28;20042;-72
2021/03/01 01:20:53;;;;;;;54.42;23.38;;;;;;;;;;4989807;28;20050;-72
2021/03/01 01:23:19;;;;;;;77.85;27.00;;;;;;;;;;4989634;28;20046;-71
2021/03/01 01:25:45;;;;;;;90.30;25.73;;;;;;;;;;4989330;28;20444;-72
2021/03/01 01:28:11;;;;;;;87.95;28.30;;;;;;;;;;4988272;28;20117;-71
2021/03/01 01:30:37;;;;;;;79.07;23.15;;;;;;;;;;4989221;28;20554;-72
2021/03/01 01:33:03;;;;;;;91.57;25.10;;;;;;;;;;4988594;28;20384;-71
2021/03/01 01:35:29;;;;;;;78.25;25.80;;;;;;;;;;4989723;28;20144;-71
2021/03/01 01:37:55;;;;;;;70.80;25.15;;;;;;;;;;4974417;28;20507;-72
2021/03/01 01:40:22;;;;;;;102.90;27.48;;;;;;;;;;4989361;28;20030;-71
2021/03/01 01:42:49;;;;;;;67.47;25.45;;;;;;;;;;4989103;28;20161;-71
2021/03/01 01:45:16;;;;;;;58.92;25.58;;;;;;;;;;4989827;28;20026;-72
2021/03/01 01:47:43;;;;;;;60.15;24.38;;;;;;;;;;4989228;28;20117;-71
2021/03/01 01:50:09;;;;;;;81.05;25.77;;;;;;;;;;4988357;28;20041;-72
2021/03/01 01:52:36;;;;;;;60.22;23.63;;;;;;;;;;4990934;28;20121;-72
2021/03/01 01:55:03;;;;;;;53.15;23.73;;;;;;;;;;4989290;28;20018;-71
2021/03/01 01:57:29;;;;;;;58.85;23.85;;;;;;;;;;4988428;28;20030;-71
2021/03/01 01:59:55;;;;;;;60.97;22.35;;;;;;;;;;4989290;28;20031;-72
2021/03/01 02:02:21;;;;;;;56.15;22.60;;;;;;;;;;4988366;28;20034;-71
2021/03/01 02:04:51;;;;;;;57.92;22.45;;;;;;;;;;4988949;28;20050;-71
2021/03/01 02:07:21;;;;;;;45.73;21.57;;;;;;;;;;4988270;28;20026;-72
2021/03/01 02:09:50;;;;;;;56.60;23.58;;;;;;;;;;4988969;28;20026;-72
2021/03/01 02:12:29;;;;;;;70.82;23.00;;;;;;;;;;4984519;28;20404;-72
2021/03/01 02:14:58;;;;;;;88.97;24.80;;;;;;;;;;4979868;28;20057;-72
2021/03/01 02:17:24;;;;;;;53.05;23.58;;;;;;;;;;4987202;28;20044;-72
2021/03/01 02:19:50;;;;;;;81.32;24.42;;;;;;;;;;4980453;28;20035;-71
2021/03/01 02:22:16;;;;;;;74.22;22.52;;;;;;;;;;4983065;28;20062;-72
2021/03/01 02:24:45;;;;;;;61.20;22.00;;;;;;;;;;4988486;28;20117;-72
2021/03/01 02:27:12;;;;;;;71.43;24.90;;;;;;;;;;4986876;28;20381;-71
2021/03/01 02:29:38;;;;;;;70.85;23.20;;;;;;;;;;4988276;28;20387;-71
2021/03/01 02:32:07;;;;;;;61.60;22.88;;;;;;;;;;4988757;28;20026;-72
2021/03/01 02:34:35;;;;;;;58.05;22.85;;;;;;;;;;4988148;28;20022;-72
2021/03/01 02:37:06;;;;;;;68.18;23.48;;;;;;;;;;4989401;28;20108;-72
2021/03/01 02:39:35;;;;;;;64.80;23.83;;;;;;;;;;4986446;28;20026;-72
2021/03/01 02:42:01;;;;;;;69.45;24.70;;;;;;;;;;4978004;28;20502;-71
2021/03/01 02:44:27;;;;;;;67.22;24.70;;;;;;;;;;4981926;28;20030;-72
2021/03/01 02:46:54;;;;;;;87.88;26.52;;;;;;;;;;4988743;28;20030;-72
2021/03/01 02:49:20;;;;;;;60.50;22.20;;;;;;;;;;4988698;28;20037;-71
2021/03/01 02:51:49;;;;;;;60.65;19.27;;;;;;;;;;4987784;28;20022;-72
2021/03/01 02:54:15;;;;;;;69.10;22.77;;;;;;;;;;4988577;28;20393;-71
2021/03/01 02:56:41;;;;;;;62.75;24.67;;;;;;;;;;4987847;28;20030;-72
2021/03/01 02:59:08;;;;;;;75.85;23.40;;;;;;;;;;4990017;28;20026;-71
2021/03/01 03:01:35;;;;;;;68.78;23.00;;;;;;;;;;4987935;28;20030;-72
2021/03/01 03:04:02;;;;;;;77.18;24.95;;;;;;;;;;4989278;28;20053;-71
2021/03/01 03:06:28;;;;;;;71.82;25.40;;;;;;;;;;4988092;28;20053;-72
2021/03/01 03:08:55;;;;;;;65.03;24.00;;;;;;;;;;4985677;28;20068;-71
2021/03/01 03:11:22;;;;;;;66.85;24.88;;;;;;;;;;4988153;28;20041;-72
2021/03/01 03:13:49;;;;;;;67.82;23.60;;;;;;;;;;4987401;28;20464;-72
2021/03/01 03:16:16;;;;;;;58.88;23.95;;;;;;;;;;4987460;28;20029;-71
2021/03/01 03:18:43;;;;;;;61.25;22.67;;;;;;;;;;4974209;28;20058;-72
2021/03/01 03:21:09;;;;;;;55.55;21.63;;;;;;;;;;4986686;28;20033;-72
2021/03/01 03:23:35;;;;;;;53.08;22.00;;;;;;;;;;4987202;28;20071;-72
2021/03/01 03:26:01;;;;;;;49.17;19.63;;;;;;;;;;4987609;28;20400;-72
2021/03/01 03:28:27;;;;;;;43.67;18.75;;;;;;;;;;4987990;28;20057;-71
2021/03/01 03:30:53;;;;;;;44.78;16.98;;;;;;;;;;4987423;28;20055;-74
2021/03/01 03:33:19;;;;;;;47.55;18.83;;;;;;;;;;4987773;28;20030;-72
2021/03/01 03:35:45;;;;;;;44.72;18.95;;;;;;;;;;4988099;28;20102;-71
2021/03/01 03:38:16;;;;;;;48.78;18.63;;;;;;;;;;4987560;28;20026;-72
2021/03/01 03:40:46;;;;;;;49.35;21.48;;;;;;;;;;4986102;28;20041;-71
2021/03/01 03:43:14;;;;;;;43.00;16.92;;;;;;;;;;4987084;28;20484;-72
2021/03/01 03:45:40;;;;;;;41.55;17.33;;;;;;;;;;4987486;28;20153;-72
2021/03/01 03:48:07;;;;;;;38.10;16.42;;;;;;;;;;4987691;28;20030;-72
2021/03/01 03:50:34;;;;;;;48.22;16.95;;;;;;;;;;4984872;28;20030;-72
2021/03/01 03:53:07;;;;;;;38.92;17.02;;;;;;;;;;4987464;28;20061;-72
2021/03/01 03:55:35;;;;;;;46.08;20.05;;;;;;;;;;4988394;28;20045;-71
2021/03/01 03:58:02;;;;;;;42.08;17.98;;;;;;;;;;4991195;28;20357;-72
2021/03/01 04:00:30;;;;;;;39.17;16.65;;;;;;;;;;4985491;28;20382;-72
2021/03/01 04:02:57;;;;;;;38.88;16.20;;;;;;;;;;4992237;28;20057;-70
2021/03/01 04:05:23;;;;;;;44.97;17.80;;;;;;;;;;4980080;28;20624;-71
2021/03/01 04:07:50;;;;;;;42.65;18.98;;;;;;;;;;4987986;28;20033;-70
2021/03/01 04:10:16;;;;;;;41.67;17.65;;;;;;;;;;4994345;28;20030;-72
2021/03/01 04:12:43;;;;;;;42.10;18.90;;;;;;;;;;4990947;28;20469;-72
2021/03/01 04:15:11;;;;;;;47.90;19.17;;;;;;;;;;4990888;28;20101;-72
2021/03/01 04:17:38;;;;;;;46.40;20.70;;;;;;;;;;4990811;28;20030;-71
2021/03/01 04:20:05;;;;;;;41.38;19.67;;;;;;;;;;4991104;28;20030;-72
2021/03/01 04:22:31;;;;;;;41.45;19.50;;;;;;;;;;4990884;28;20053;-72
2021/03/01 04:24:57;;;;;;;43.83;18.05;;;;;;;;;;4990470;28;20030;-71
2021/03/01 04:27:23;;;;;;;39.28;20.23;;;;;;;;;;4990929;28;20037;-71
2021/03/01 04:29:49;;;;;;;47.53;21.20;;;;;;;;;;4990116;28;20427;-72
2021/03/01 04:32:16;;;;;;;43.20;20.23;;;;;;;;;;4989362;28;20545;-71
2021/03/01 04:34:43;;;;;;;48.00;21.30;;;;;;;;;;4998742;28;20030;-72
2021/03/01 04:37:09;;;;;;;47.22;22.98;;;;;;;;;;4991451;28;20073;-72
2021/03/01 04:39:35;;;;;;;51.53;21.48;;;;;;;;;;4979589;28;20499;-72
2021/03/01 04:42:01;;;;;;;50.25;21.85;;;;;;;;;;4984480;28;20030;-72
2021/03/01 04:44:27;;;;;;;44.92;22.02;;;;;;;;;;4980529;28;20113;-72
2021/03/01 04:46:54;;;;;;;51.83;23.70;;;;;;;;;;4990471;28;20038;-70
2021/03/01 04:49:22;;;;;;;50.00;22.25;;;;;;;;;;4990523;28;20033;-72
2021/03/01 04:51:49;;;;;;;44.65;21.30;;;;;;;;;;4988970;28;20031;-72
2021/03/01 04:54:15;;;;;;;45.28;21.55;;;;;;;;;;4989210;28;20068;-72
2021/03/01 04:56:44;;;;;;;45.35;19.23;;;;;;;;;;4991123;28;20548;-71
2021/03/01 04:59:14;;;;;;;45.05;19.80;;;;;;;;;;4980976;28;20022;-72
2021/03/01 05:01:41;;;;;;;42.80;20.70;;;;;;;;;;4990283;28;20023;-72
2021/03/01 05:04:07;;;;;;;45.13;20.90;;;;;;;;;;4989933;28;20319;-72
2021/03/01 05:06:33;;;;;;;37.47;18.75;;;;;;;;;;4989813;28;20037;-71
2021/03/01 05:09:01;;;;;;;40.35;19.10;;;;;;;;;;4990035;28;20030;-72
2021/03/01 05:11:29;;;;;;;42.08;19.23;;;;;;;;;;4990184;28;20056;-72
2021/03/01 05:13:55;;;;;;;36.05;18.05;;;;;;;;;;4991295;28;20492;-72
2021/03/01 05:16:23;;;;;;;36.63;17.33;;;;;;;;;;4990371;28;20106;-72
2021/03/01 05:18:49;;;;;;;33.60;17.52;;;;;;;;;;4990259;28;20026;-72
2021/03/01 05:21:15;;;;;;;36.55;18.73;;;;;;;;;;4989670;28;20104;-72
2021/03/01 05:23:41;;;;;;;36.85;18.35;;;;;;;;;;4989718;28;20468;-72
2021/03/01 05:26:06;;;;;;;35.15;18.23;;;;;;;;;;4987740;28;20498;-72
2021/03/01 05:28:32;;;;;;;35.05;18.05;;;;;;;;;;4989751;28;20499;-72
2021/03/01 05:30:58;;;;;;;37.35;17.80;;;;;;;;;;4989259;28;20031;-72
2021/03/01 05:33:24;;;;;;;41.22;19.98;;;;;;;;;;4989968;28;20515;-70
2021/03/01 05:35:50;;;;;;;42.83;19.60;;;;;;;;;;4989751;28;20030;-72
2021/03/01 05:38:16;;;;;;;39.95;18.65;;;;;;;;;;4989297;28;20356;-72
2021/03/01 05:40:42;;;;;;;48.58;22.63;;;;;;;;;;4989905;28;20117;-72
2021/03/01 05:43:08;;;;;;;45.38;21.35;;;;;;;;;;4988739;28;20030;-70
2021/03/01 05:45:35;;;;;;;40.85;20.63;;;;;;;;;;4989584;28;20034;-72
2021/03/01 05:48:01;;;;;;;45.10;20.67;;;;;;;;;;4988820;28;20038;-72
2021/03/01 05:50:27;;;;;;;45.63;21.83;;;;;;;;;;4989342;28;20471;-71
2021/03/01 05:52:55;;;;;;;47.30;22.58;;;;;;;;;;4989770;28;20085;-71
2021/03/01 05:55:22;;;;;;;49.08;22.55;;;;;;;;;;4982001;28;20031;-71
2021/03/01 05:57:48;;;;;;;50.40;23.92;;;;;;;;;;4981027;28;20030;-71
2021/03/01 06:00:15;;;;;;;49.55;22.88;;;;;;;;;;4974322;28;20085;-72
2021/03/01 06:02:41;;;;;;;45.13;22.25;;;;;;;;;;4975382;28;20307;-72
2021/03/01 06:05:07;;;;;;;53.03;24.17;;;;;;;;;;4987583;28;20030;-70
2021/03/01 06:07:33;;;;;;;55.90;21.52;;;;;;;;;;4988538;28;20472;-72
2021/03/01 06:09:59;;;;;;;55.08;22.23;;;;;;;;;;4992877;28;20071;-70
2021/03/01 06:12:25;;;;;;;52.80;24.20;;;;;;;;;;5003515;28;20081;-72
2021/03/01 06:14:51;;;;;;;56.17;25.40;;;;;;;;;;4987324;28;20088;-72
2021/03/01 06:17:20;;;;;;;49.53;24.10;;;;;;;;;;4987139;28;20030;-72
2021/03/01 06:19:53;;;;;;;55.63;23.95;;;;;;;;;;4988664;28;20045;-72
2021/03/01 06:22:20;;;;;;;55.63;25.10;;;;;;;;;;4988093;28;20046;-72
2021/03/01 06:25:04;;;;;;;57.47;26.08;;;;;;;;;;4987995;28;20026;-72
2021/03/01 06:27:31;;;;;;;51.42;24.27;;;;;;;;;;4988400;28;20023;-72
2021/03/01 06:30:10;;;;;;;60.55;25.67;;;;;;;;;;4987847;28;20431;-71
2021/03/01 06:32:36;;;;;;;53.42;23.60;;;;;;;;;;4988706;28;20105;-72
2021/03/01 06:35:03;;;;;;;62.65;25.33;;;;;;;;;;4987353;28;20468;-72
2021/03/01 06:37:29;;;;;;;62.50;26.88;;;;;;;;;;4989237;28;20464;-72
2021/03/01 06:39:56;;;;;;;61.67;27.42;;;;;;;;;;4987887;28;20100;-72
2021/03/01 06:42:23;;;;;;;55.22;26.27;;;;;;;;;;4988531;28;20041;-72
2021/03/01 06:44:58;;;;;;;55.90;24.90;;;;;;;;;;4987894;28;20026;-72
2021/03/01 06:47:43;;;;;;;51.10;24.13;;;;;;;;;;4987382;28;20037;-72
2021/03/01 06:50:24;;;;;;;65.20;25.00;;;;;;;;;;4987863;28;20026;-72
2021/03/01 06:52:50;;;;;;;52.58;24.63;;;;;;;;;;4982770;28;20034;-72
2021/03/01 06:55:17;;;;;;;55.70;25.10;;;;;;;;;;4987285;28;20439;-71
2021/03/01 06:57:42;;;;;;;52.72;25.65;;;;;;;;;;4988268;28;20037;-72
2021/03/01 07:00:09;;;;;;;68.40;27.50;;;;;;;;;;4987168;28;20030;-73
2021/03/01 07:02:38;;;;;;;68.25;25.70;;;;;;;;;;4984005;28;20061;-72
2021/03/01 07:05:04;;;;;;;56.03;24.20;;;;;;;;;;4970291;28;20037;-72
2021/03/01 07:07:39;;;;;;;57.65;24.63;;;;;;;;;;4984652;28;20034;-71
2021/03/01 07:10:07;;;;;;;63.30;25.70;;;;;;;;;;4988169;28;20157;-72
2021/03/01 07:12:43;;;;;;;55.58;25.80;;;;;;;;;;4986681;28;20026;-72
2021/03/01 07:15:13;;;;;;;59.25;24.10;;;;;;;;;;4986057;28;20022;-72
2021/03/01 07:17:40;;;;;;;59.63;25.05;;;;;;;;;;4985548;28;20022;-72
2021/03/01 07:20:07;;;;;;;57.10;23.98;;;;;;;;;;4988630;28;20034;-73
2021/03/01 07:22:34;;;;;;;53.58;22.85;;;;;;;;;;4987287;28;20042;-72
2021/03/01 07:25:01;;;;;;;51.75;25.17;;;;;;;;;;4985954;28;20027;-72
2021/03/01 07:27:27;;;;;;;63.85;26.98;;;;;;;;;;4982639;28;20035;-72
2021/03/01 07:29:56;;;;;;;59.58;25.00;;;;;;;;;;4989274;28;20809;-72
2021/03/01 07:32:23;;;;;;;63.35;27.40;;;;;;;;;;4990979;28;20035;-73
2021/03/01 07:34:50;;;;;;;61.17;27.00;;;;;;;;;;4989762;28;20037;-72
2021/03/01 07:37:18;;;;;;;62.17;26.40;;;;;;;;;;4990183;28;20606;-72
2021/03/01 07:39:44;;;;;;;67.97;25.15;;;;;;;;;;4990674;28;20108;-72
2021/03/01 07:42:12;;;;;;;61.33;26.77;;;;;;;;;;4991134;28;20058;-72
2021/03/01 07:44:38;;;;;;;59.50;26.30;;;;;;;;;;4989691;28;20141;-72
2021/03/01 07:47:04;;;;;;;56.53;24.98;;;;;;;;;;4990089;28;20036;-72
2021/03/01 07:49:41;;;;;;;55.80;24.55;;;;;;;;;;4991298;28;20360;-72
2021/03/01 07:52:07;;;;;;;59.78;25.98;;;;;;;;;;4978692;28;20022;-72
2021/03/01 07:55:10;;;;;;;60.05;25.25;;;;;;;;;;4991513;28;20030;-72
2021/03/01 07:57:37;;;;;;;51.38;22.35;;;;;;;;;;4949767;29;20393;-72
2021/03/01 08:00:22;;;;;;;50.72;24.67;;;;;;;;;;4983757;28;20350;-72
2021/03/01 08:02:48;;;;;;;54.33;23.60;;;;;;;;;;4978759;28;20512;-72
2021/03/01 08:05:24;;;;;;;51.05;23.73;;;;;;;;;;4991481;28;20022;-72
2021/03/01 08:07:50;;;;;;;43.38;20.20;;;;;;;;;;4992918;28;20030;-72
2021/03/01 08:10:32;;;;;;;47.00;22.02;;;;;;;;;;4991280;28;20117;-72
2021/03/01 08:13:02;;;;;;;50.53;22.10;;;;;;;;;;4990868;28;20523;-71
2021/03/01 08:15:29;;;;;;;56.25;23.77;;;;;;;;;;4990957;28;20026;-72
2021/03/01 08:17:56;;;;;;;46.67;21.20;;;;;;;;;;4990309;28;20027;-71
2021/03/01 08:20:24;;;;;;;46.88;21.55;;;;;;;;;;4991202;28;20022;-72
2021/03/01 08:23:06;;;;;;;39.58;20.52;;;;;;;;;;4990671;28;20376;-72
2021/03/01 08:25:44;;;;;;;45.88;21.17;;;;;;;;;;4990850;28;20031;-72
2021/03/01 08:28:16;;;;;;;45.13;21.60;;;;;;;;;;4990377;28;20448;-74
2021/03/01 08:30:42;;;;;;;46.60;21.45;;;;;;;;;;4983257;28;20213;-72
2021/03/01 08:33:08;;;;;;;43.10;20.90;;;;;;;;;;4991533;28;20077;-71
2021/03/01 08:35:37;;;;;;;52.05;22.02;;;;;;;;;;4990597;28;20030;-71
2021/03/01 08:38:04;;;;;;;44.78;19.85;;;;;;;;;;4990226;28;20022;-71
2021/03/01 08:40:30;;;;;;;47.95;21.02;;;;;;;;;;4980647;28;20106;-72
2021/03/01 08:42:57;;;;;;;46.00;21.90;;;;;;;;;;4986842;28;20038;-72
2021/03/01 08:45:36;;;;;;;48.50;22.35;;;;;;;;;;4988178;28;20543;-72
2021/03/01 08:48:03;;;;;;;45.72;22.70;;;;;;;;;;4989396;28;20041;-73
2021/03/01 08:50:29;;;;;;;44.72;20.85;;;;;;;;;;4983388;28;20045;-73
2021/03/01 08:52:55;;;;;;;48.42;24.67;;;;;;;;;;4990967;28;20034;-73
2021/03/01 08:55:21;;;;;;;50.78;24.25;;;;;;;;;;4988192;28;20050;-73
2021/03/01 08:57:54;;;;;;;50.30;23.75;;;;;;;;;;4973720;28;20770;-73
2021/03/01 09:00:21;;;;;;;49.50;22.92;;;;;;;;;;4970482;28;20417;-73
2021/03/01 09:02:46;;;;;;;50.95;21.60;;;;;;;;;;4972553;28;20623;-72
2021/03/01 09:05:16;;;;;;;48.60;22.73;;;;;;;;;;4971275;28;20035;-72
2021/03/01 09:07:46;;;;;;;55.95;25.30;;;;;;;;;;4970832;28;20544;-73
2021/03/01 09:10:12;;;;;;;51.87;21.10;;;;;;;;;;4973739;28;20027;-73
2021/03/01 09:12:38;;;;;;;45.47;21.55;;;;;;;;;;4961059;28;20031;-73
2021/03/01 09:15:05;;;;;;;45.90;22.60;;;;;;;;;;4976131;28;20400;-73
2021/03/01 09:17:31;;;;;;;41.47;19.85;;;;;;;;;;4975222;28;20068;-73
2021/03/01 09:19:57;;;;;;;44.53;20.88;;;;;;;;;;4974140;28;20054;-73
2021/03/01 09:22:23;;;;;;;43.67;21.85;;;;;;;;;;4973798;28;20035;-73
2021/03/01 09:24:49;;;;;;;41.75;21.17;;;;;;;;;;4974351;28;20105;-72
2021/03/01 09:27:30;;;;;;;39.50;19.58;;;;;;;;;;4974441;28;20049;-73
2021/03/01 09:29:55;;;;;;;;;;;;;;;;;;4974482;28;20046;-73
2021/03/01 09:32:22;;;;;;;39.85;20.45;;;;;;;;;;4971695;28;19924;-72
2021/03/01 09:34:48;;;;;;;41.50;19.88;;;;;;;;;;4963814;28;20031;-72
2021/03/01 09:37:13;;;;;;;42.72;20.70;;;;;;;;;;4973854;28;20564;-72
2021/03/01 09:39:43;;;;;;;33.53;17.38;;;;;;;;;;4971076;28;20105;-71
2021/03/01 09:42:09;;;;;;;37.35;18.23;;;;;;;;;;4970136;28;20114;-71
2021/03/01 09:44:36;;;;;;;38.05;18.90;;;;;;;;;;4970157;28;20035;-74
2021/03/01 09:47:03;;;;;;;39.13;18.20;;;;;;;;;;4967845;28;20025;-72
2021/03/01 09:49:30;;;;;;;40.67;20.50;;;;;;;;;;4969711;28;20034;-72
2021/03/01 09:51:56;;;;;;;37.67;19.05;;;;;;;;;;4966546;28;20034;-73
2021/03/01 09:54:23;;;;;;;35.22;18.38;;;;;;;;;;4968047;28;20086;-72
2021/03/01 09:56:55;;;;;;;34.70;16.90;;;;;;;;;;4968726;28;20113;-73
2021/03/01 09:59:35;;;;;;;36.83;18.35;;;;;;;;;;4966545;28;20027;-73
2021/03/01 10:02:07;;;;;;;31.65;16.92;;;;;;;;;;4965616;28;20434;-73
2021/03/01 10:04:32;;;;;;;30.45;15.57;;;;;;;;;;4965557;28;20046;-74
2021/03/01 10:07:14;;;;;;;36.17;16.38;;;;;;;;;;4968704;28;20031;-73
2021/03/01 10:09:40;;;;;;;32.95;16.23;;;;;;;;;;4966789;28;20735;-73
2021/03/01 10:12:06;;;;;;;36.55;16.90;;;;;;;;;;4969153;28;20026;-73
2021/03/01 10:14:32;;;;;;;28.85;15.32;;;;;;;;;;4968773;28;20547;-73
2021/03/01 10:16:59;;;;;;;32.47;16.95;;;;;;;;;;4969052;28;20373;-73
2021/03/01 10:19:25;;;;;;;35.60;16.83;;;;;;;;;;4966539;28;20093;-73
2021/03/01 10:21:51;;;;;;;31.05;15.55;;;;;;;;;;4968861;28;20027;-73
2021/03/01 10:24:18;;;;;;;32.08;16.35;;;;;;;;;;4968563;28;20106;-73
2021/03/01 10:26:50;;;;;;;28.52;14.45;;;;;;;;;;4968836;28;20054;-73
2021/03/01 10:29:16;;;;;;;31.00;15.73;;;;;;;;;;4968739;28;20552;-73
2021/03/01 10:31:43;;;;;;;27.95;13.82;;;;;;;;;;4968341;28;20030;-73
2021/03/01 10:34:16;;;;;;;29.92;13.73;;;;;;;;;;4967908;28;20469;-73
2021/03/01 10:36:55;;;;;;;27.98;12.63;;;;;;;;;;4982281;28;20027;-73
2021/03/01 10:39:32;;;;;;;34.67;14.13;;;;;;;;;;4967435;28;20019;-73
2021/03/01 10:42:12;;;;;;;30.67;14.45;;;;;;;;;;4969381;28;20023;-73
2021/03/01 10:44:43;;;;;;;25.90;13.93;;;;;;;;;;4967080;28;20023;-73
2021/03/01 10:47:09;;;;;;;;;;;;;;;;;;4969801;28;20101;-72
2021/03/01 10:49:35;;;;;;;31.77;15.93;;;;;;;;;;4968273;28;20001;-73
2021/03/01 10:52:01;;;;;;;27.58;13.95;;;;;;;;;;4966892;28;20062;-73
2021/03/01 10:54:27;;;;;;;28.02;14.38;;;;;;;;;;4968515;28;20105;-73
2021/03/01 10:56:53;;;;;;;24.90;14.02;;;;;;;;;;4968758;28;20153;-74
2021/03/01 10:59:19;;;;;;;28.52;14.45;;;;;;;;;;4969161;28;20030;-73
2021/03/01 11:01:46;;;;;;;27.73;14.95;;;;;;;;;;4983338;28;20461;-73
2021/03/01 11:04:13;;;;;;;27.73;13.90;;;;;;;;;;4968162;28;20023;-74
2021/03/01 11:06:39;;;;;;;25.38;13.80;;;;;;;;;;4967432;28;20400;-74
2021/03/01 11:09:06;;;;;;;28.92;15.52;;;;;;;;;;4968575;28;20053;-74
2021/03/01 11:11:33;;;;;;;28.25;13.95;;;;;;;;;;4968773;28;20117;-73
2021/03/01 11:13:59;;;;;;;25.10;13.95;;;;;;;;;;4968329;28;20027;-74
2021/03/01 11:16:25;;;;;;;26.92;14.65;;;;;;;;;;4969042;28;20039;-74
2021/03/01 11:18:51;;;;;;;25.63;14.10;;;;;;;;;;4967204;28;20038;-74
2021/03/01 11:21:17;;;;;;;26.55;13.60;;;;;;;;;;4968524;28;20408;-73
2021/03/01 11:23:44;;;;;;;27.27;14.70;;;;;;;;;;4970439;28;20034;-73
2021/03/01 11:26:10;;;;;;;28.67;15.30;;;;;;;;;;4967150;28;20055;-73
2021/03/01 11:28:36;;;;;;;25.50;14.13;;;;;;;;;;4965001;28;20117;-74
2021/03/01 11:31:02;;;;;;;27.27;14.93;;;;;;;;;;4968178;28;20043;-74
2021/03/01 11:33:28;;;;;;;26.40;15.75;;;;;;;;;;4968215;28;20106;-74
2021/03/01 11:35:54;;;;;;;31.00;15.15;;;;;;;;;;4972667;28;20027;-74
2021/03/01 11:38:22;;;;;;;26.65;14.70;;;;;;;;;;4968054;28;20023;-74
2021/03/01 11:40:48;;;;;;;29.40;14.60;;;;;;;;;;4968441;28;20432;-74
2021/03/01 11:43:14;;;;;;;31.17;16.27;;;;;;;;;;4967329;28;20034;-74
2021/03/01 11:45:40;;;;;;;25.02;13.13;;;;;;;;;;4972793;28;20034;-73
2021/03/01 11:48:06;;;;;;;29.52;14.90;;;;;;;;;;4971592;28;20022;-73
2021/03/01 11:50:32;;;;;;;26.73;14.40;;;;;;;;;;4970175;28;20038;-73
2021/03/01 11:52:58;;;;;;;28.90;14.23;;;;;;;;;;4970424;28;20023;-74
2021/03/01 11:55:24;;;;;;;30.38;15.65;;;;;;;;;;4974946;28;20038;-73
2021/03/01 11:57:50;;;;;;;31.40;15.85;;;;;;;;;;4982680;28;20547;-74
2021/03/01 12:00:17;;;;;;;26.73;16.70;;;;;;;;;;4971801;28;20031;-73
2021/03/01 12:02:43;;;;;;;29.90;14.55;;;;;;;;;;4970162;28;20038;-73
2021/03/01 12:05:09;;;;;;;28.58;14.65;;;;;;;;;;4966765;28;20039;-73
2021/03/01 12:07:36;;;;;;;31.30;15.43;;;;;;;;;;4965988;28;20464;-73
2021/03/01 12:10:02;;;;;;;30.63;15.27;;;;;;;;;;4967935;28;20034;-73
2021/03/01 12:12:28;;;;;;;27.05;14.80;;;;;;;;;;4971115;28;20033;-73
2021/03/01 12:14:54;;;;;;;26.92;14.90;;;;;;;;;;4966742;28;20035;-74
2021/03/01 12:17:20;;;;;;;30.92;15.50;;;;;;;;;;4972315;28;20384;-74
2021/03/01 12:19:47;;;;;;;26.52;14.50;;;;;;;;;;4969774;28;20042;-74
2021/03/01 12:22:13;;;;;;;28.38;13.95;;;;;;;;;;4970058;28;20114;-74
2021/03/01 12:24:39;;;;;;;27.45;14.20;;;;;;;;;;4971549;28;20173;-75
2021/03/01 12:27:05;;;;;;;32.33;15.02;;;;;;;;;;4968215;28;20034;-74
2021/03/01 12:29:31;;;;;;;25.02;14.18;;;;;;;;;;4981879;28;20030;-75
2021/03/01 12:31:57;;;;;;;29.63;15.82;;;;;;;;;;4972644;28;20026;-74
2021/03/01 12:34:23;;;;;;;24.20;13.88;;;;;;;;;;4972925;28;20030;-74
2021/03/01 12:36:49;;;;;;;24.95;12.93;;;;;;;;;;4972403;28;20453;-74
2021/03/01 12:39:15;;;;;;;24.90;13.70;;;;;;;;;;4973055;28;20030;-74
2021/03/01 12:41:41;;;;;;;24.55;13.45;;;;;;;;;;4972412;28;20114;-73
2021/03/01 12:44:07;;;;;;;25.33;14.10;;;;;;;;;;4973469;28;20134;-73
2021/03/01 12:46:33;;;;;;;24.25;13.23;;;;;;;;;;4974278;28;20034;-73
2021/03/01 12:48:59;;;;;;;29.05;13.77;;;;;;;;;;4973777;28;20022;-73
2021/03/01 12:51:25;;;;;;;22.55;12.68;;;;;;;;;;4975240;28;20031;-73
2021/03/01 12:53:51;;;;;;;23.10;12.82;;;;;;;;;;4973267;28;20117;-73
2021/03/01 12:56:17;;;;;;;26.40;12.43;;;;;;;;;;4963301;28;20031;-74
2021/03/01 12:58:43;;;;;;;21.98;12.60;;;;;;;;;;4972153;28;20022;-74
2021/03/01 13:01:09;;;;;;;21.40;11.60;;;;;;;;;;4989122;28;20054;-74
2021/03/01 13:03:35;;;;;;;23.15;12.32;;;;;;;;;;4975056;28;20147;-74
2021/03/01 13:06:01;;;;;;;18.38;10.57;;;;;;;;;;4975186;28;20027;-74
2021/03/01 13:08:27;;;;;;;19.92;12.02;;;;;;;;;;4975805;28;20047;-74
2021/03/01 13:10:54;;;;;;;21.65;13.15;;;;;;;;;;4975029;28;20037;-74
2021/03/01 13:13:20;;;;;;;22.45;12.85;;;;;;;;;;4975995;28;20023;-74
2021/03/01 13:15:46;;;;;;;22.75;11.95;;;;;;;;;;4974402;28;20102;-74
2021/03/01 13:18:12;;;;;;;17.88;10.02;;;;;;;;;;4975749;28;20034;-74
2021/03/01 13:20:38;;;;;;;21.25;13.20;;;;;;;;;;4983584;28;20061;-74
2021/03/01 13:23:05;;;;;;;20.00;10.52;;;;;;;;;;4992098;28;20031;-74
2021/03/01 13:25:31;;;;;;;19.92;10.55;;;;;;;;;;4992163;28;20054;-74
2021/03/01 13:27:57;;;;;;;22.33;11.23;;;;;;;;;;4991672;28;20026;-74
2021/03/01 13:30:23;;;;;;;20.20;11.52;;;;;;;;;;4992805;28;20034;-74
2021/03/01 13:32:49;;;;;;;19.92;11.52;;;;;;;;;;4990347;28;20019;-74
2021/03/01 13:35:15;;;;;;;22.17;11.75;;;;;;;;;;4989541;28;20029;-74
2021/03/01 13:37:41;;;;;;;21.20;10.82;;;;;;;;;;4974553;28;20034;-74
2021/03/01 13:40:07;;;;;;;22.27;11.82;;;;;;;;;;4988427;28;20106;-74
2021/03/01 13:42:38;;;;;;;20.73;10.98;;;;;;;;;;4989428;28;20046;-74
2021/03/01 13:45:08;;;;;;;20.40;10.60;;;;;;;;;;4986892;28;20014;-74
2021/03/01 13:47:34;;;;;;;22.60;10.80;;;;;;;;;;4986885;28;20037;-74
2021/03/01 13:50:00;;;;;;;20.73;11.10;;;;;;;;;;4985401;28;20038;-74
2021/03/01 13:52:26;;;;;;;19.20;11.02;;;;;;;;;;4968827;28;20027;-74
2021/03/01 13:54:52;;;;;;;21.73;11.45;;;;;;;;;;4966693;28;20368;-74
2021/03/01 13:57:18;;;;;;;20.08;10.93;;;;;;;;;;4974699;28;20030;-74
2021/03/01 13:59:44;;;;;;;21.77;11.73;;;;;;;;;;4969304;28;20027;-74
2021/03/01 14:02:10;;;;;;;23.35;11.95;;;;;;;;;;4970095;28;20463;-73
2021/03/01 14:04:40;;;;;;;27.92;11.93;;;;;;;;;;4970745;28;20830;-74
2021/03/01 14:07:06;;;;;;;22.35;11.55;;;;;;;;;;4969093;28;20034;-74
2021/03/01 14:09:32;;;;;;;22.77;11.65;;;;;;;;;;4969249;28;20109;-74
2021/03/01 14:11:58;;;;;;;24.85;12.23;;;;;;;;;;4969776;28;20038;-74
2021/03/01 14:14:24;;;;;;;22.42;11.65;;;;;;;;;;4969843;28;20377;-75
2021/03/01 14:16:50;;;;;;;23.88;12.02;;;;;;;;;;4967689;28;20023;-75
2021/03/01 14:19:17;;;;;;;19.08;10.40;;;;;;;;;;4962251;28;20396;-75